sensor_id;sensor_type;location;lat;lon;timestamp;temperature;humidity
32322;DHT22;61553;48.994;8.940;2022-07-22T00:00:10;16.00;99.90
32322;DHT22;61553;48.994;8.940;2022-07-22T00:02:36;16.00;99.90
32322;DHT22;61553;48.994;8.940;2022-07-22T00:05:02;16.00;99.90
32322;DHT22;61553;48.994;8.940;2022-07-22T00:07:28;15.90;99.90
32322;DHT22;61553;48.994;8.940;2022-07-22T00:09:54;15.90;99.90
32322;DHT22;61553;48.994;8.940;2022-07-22T00:12:19;15.90;99.90
32322;DHT22;61553;48.994;8.940;2022-07-22T00:14:45;15.80;99.90
32322;DHT22;61553;48.994;8.940;2022-07-22T00:17:11;15.70;99.90
32322;DHT22;61553;48.994;8.940;2022-07-22T00:19:36;15.70;99.90
32322;DHT22;61553;48.994;8.940;2022-07-22T00:22:03;15.70;99.90
32322;DHT22;61553;48.994;8.940;2022-07-22T00:24:28;15.70;99.90
32322;DHT22;61553;48.994;8.940;2022-07-22T00:26:54;15.60;99.90
32322;DHT22;61553;48.994;8.940;2022-07-22T00:29:20;15.70;99.90
32322;DHT22;61553;48.994;8.940;2022-07-22T00:31:45;15.70;99.90
32322;DHT22;61553;48.994;8.940;2022-07-22T00:34:11;15.60;99.90
32322;DHT22;61553;48.994;8.940;2022-07-22T00:36:37;15.60;99.90
32322;DHT22;61553;48.994;8.940;2022-07-22T00:39:03;15.50;99.90
32322;DHT22;61553;48.994;8.940;2022-07-22T00:41:29;15.50;99.90
32322;DHT22;61553;48.994;8.940;2022-07-22T00:43:59;15.40;99.90
32322;DHT22;61553;48.994;8.940;2022-07-22T00:46:26;15.40;99.90
32322;DHT22;61553;48.994;8.940;2022-07-22T00:48:54;15.40;99.90
32322;DHT22;61553;48.994;8.940;2022-07-22T00:51:21;15.40;99.90
32322;DHT22;61553;48.994;8.940;2022-07-22T00:53:48;15.40;99.90
32322;DHT22;61553;48.994;8.940;2022-07-22T00:56:15;15.40;99.90
32322;DHT22;61553;48.994;8.940;2022-07-22T00:58:42;15.30;99.90
32322;DHT22;61553;48.994;8.940;2022-07-22T01:01:08;15.30;99.90
32322;DHT22;61553;48.994;8.940;2022-07-22T01:03:33;15.30;99.90
32322;DHT22;61553;48.994;8.940;2022-07-22T01:05:59;15.30;99.90
32322;DHT22;61553;48.994;8.940;2022-07-22T01:08:25;15.30;99.90
32322;DHT22;61553;48.994;8.940;2022-07-22T01:10:51;15.30;99.90
32322;DHT22;61553;48.994;8.940;2022-07-22T01:13:16;15.20;99.90
32322;DHT22;61553;48.994;8.940;2022-07-22T01:15:42;15.30;99.90
32322;DHT22;61553;48.994;8.940;2022-07-22T01:18:08;15.30;99.90
32322;DHT22;61553;48.994;8.940;2022-07-22T01:20:35;15.30;99.90
32322;DHT22;61553;48.994;8.940;2022-07-22T01:23:00;15.30;99.90
32322;DHT22;61553;48.994;8.940;2022-07-22T01:25:26;15.30;99.90
32322;DHT22;61553;48.994;8.940;2022-07-22T01:27:52;15.30;99.90
32322;DHT22;61553;48.994;8.940;2022-07-22T01:30:17;15.30;99.90
32322;DHT22;61553;48.994;8.940;2022-07-22T01:32:43;15.30;99.90
32322;DHT22;61553;48.994;8.940;2022-07-22T01:35:09;15.20;99.90
32322;DHT22;61553;48.994;8.940;2022-07-22T01:37:34;15.30;99.90
32322;DHT22;61553;48.994;8.940;2022-07-22T01:40:00;15.20;99.90
32322;DHT22;61553;48.994;8.940;2022-07-22T01:42:26;15.20;99.90
32322;DHT22;61553;48.994;8.940;2022-07-22T01:44:52;15.10;99.90
32322;DHT22;61553;48.994;8.940;2022-07-22T01:47:17;15.10;99.90
32322;DHT22;61553;48.994;8.940;2022-07-22T01:49:43;15.00;99.90
32322;DHT22;61553;48.994;8.940;2022-07-22T01:52:09;15.00;99.90
32322;DHT22;61553;48.994;8.940;2022-07-22T01:54:34;14.90;99.90
32322;DHT22;61553;48.994;8.940;2022-07-22T01:57:00;14.90;99.90
32322;DHT22;61553;48.994;8.940;2022-07-22T01:59:26;14.90;99.90
32322;DHT22;61553;48.994;8.940;2022-07-22T02:01:52;14.90;99.90
32322;DHT22;61553;48.994;8.940;2022-07-22T02:04:17;14.90;99.90
32322;DHT22;61553;48.994;8.940;2022-07-22T02:06:43;14.90;99.90
32322;DHT22;61553;48.994;8.940;2022-07-22T02:09:08;14.80;99.90
32322;DHT22;61553;48.994;8.940;2022-07-22T02:11:34;14.80;99.90
32322;DHT22;61553;48.994;8.940;2022-07-22T02:14:00;14.90;99.90
32322;DHT22;61553;48.994;8.940;2022-07-22T02:16:25;14.90;99.90
32322;DHT22;61553;48.994;8.940;2022-07-22T02:18:51;14.80;99.90
32322;DHT22;61553;48.994;8.940;2022-07-22T02:21:17;14.90;99.90
32322;DHT22;61553;48.994;8.940;2022-07-22T02:23:43;14.80;99.90
32322;DHT22;61553;48.994;8.940;2022-07-22T02:26:09;14.80;99.90
32322;DHT22;61553;48.994;8.940;2022-07-22T02:28:35;14.80;99.90
32322;DHT22;61553;48.994;8.940;2022-07-22T02:31:01;14.70;99.90
32322;DHT22;61553;48.994;8.940;2022-07-22T02:33:26;14.70;99.90
32322;DHT22;61553;48.994;8.940;2022-07-22T02:35:52;14.70;99.90
32322;DHT22;61553;48.994;8.940;2022-07-22T02:38:17;14.70;99.90
32322;DHT22;61553;48.994;8.940;2022-07-22T02:40:43;14.60;99.90
32322;DHT22;61553;48.994;8.940;2022-07-22T02:43:09;14.60;99.90
32322;DHT22;61553;48.994;8.940;2022-07-22T02:45:34;14.60;99.90
32322;DHT22;61553;48.994;8.940;2022-07-22T02:48:00;14.60;99.90
32322;DHT22;61553;48.994;8.940;2022-07-22T02:50:26;14.50;99.90
32322;DHT22;61553;48.994;8.940;2022-07-22T02:52:51;14.50;99.90
32322;DHT22;61553;48.994;8.940;2022-07-22T02:55:17;14.50;99.90
32322;DHT22;61553;48.994;8.940;2022-07-22T02:57:43;14.50;99.90
32322;DHT22;61553;48.994;8.940;2022-07-22T03:00:11;14.50;99.90
32322;DHT22;61553;48.994;8.940;2022-07-22T03:02:38;14.50;99.90
32322;DHT22;61553;48.994;8.940;2022-07-22T03:05:05;14.50;99.90
32322;DHT22;61553;48.994;8.940;2022-07-22T03:07:31;14.50;99.90
32322;DHT22;61553;48.994;8.940;2022-07-22T03:09:57;14.50;99.90
32322;DHT22;61553;48.994;8.940;2022-07-22T03:12:22;14.50;99.90
32322;DHT22;61553;48.994;8.940;2022-07-22T03:14:48;14.50;99.90
32322;DHT22;61553;48.994;8.940;2022-07-22T03:17:13;14.40;99.90
32322;DHT22;61553;48.994;8.940;2022-07-22T03:19:39;14.40;99.90
32322;DHT22;61553;48.994;8.940;2022-07-22T03:22:05;14.40;99.90
32322;DHT22;61553;48.994;8.940;2022-07-22T03:24:30;14.40;99.90
32322;DHT22;61553;48.994;8.940;2022-07-22T03:26:56;14.40;99.90
32322;DHT22;61553;48.994;8.940;2022-07-22T03:29:21;14.30;99.90
32322;DHT22;61553;48.994;8.940;2022-07-22T03:31:47;14.30;99.90
32322;DHT22;61553;48.994;8.940;2022-07-22T03:34:13;14.30;99.90
32322;DHT22;61553;48.994;8.940;2022-07-22T03:36:38;14.30;99.90
32322;DHT22;61553;48.994;8.940;2022-07-22T03:39:04;14.20;99.90
32322;DHT22;61553;48.994;8.940;2022-07-22T03:41:30;14.20;99.90
32322;DHT22;61553;48.994;8.940;2022-07-22T03:43:55;14.20;99.90
32322;DHT22;61553;48.994;8.940;2022-07-22T03:46:21;14.10;99.90
32322;DHT22;61553;48.994;8.940;2022-07-22T03:48:47;14.10;99.90
32322;DHT22;61553;48.994;8.940;2022-07-22T03:51:13;14.10;99.90
32322;DHT22;61553;48.994;8.940;2022-07-22T03:53:38;14.10;99.90
32322;DHT22;61553;48.994;8.940;2022-07-22T03:56:05;14.10;99.90
32322;DHT22;61553;48.994;8.940;2022-07-22T03:58:31;14.10;99.90
32322;DHT22;61553;48.994;8.940;2022-07-22T04:00:56;14.10;99.90
32322;DHT22;61553;48.994;8.940;2022-07-22T04:03:22;14.20;99.90
32322;DHT22;61553;48.994;8.940;2022-07-22T04:05:48;14.20;99.90
32322;DHT22;61553;48.994;8.940;2022-07-22T04:08:13;14.20;99.90
32322;DHT22;61553;48.994;8.940;2022-07-22T04:10:39;14.20;99.90
32322;DHT22;61553;48.994;8.940;2022-07-22T04:13:05;14.30;99.90
32322;DHT22;61553;48.994;8.940;2022-07-22T04:15:31;14.30;99.90
32322;DHT22;61553;48.994;8.940;2022-07-22T04:17:56;14.40;99.90
32322;DHT22;61553;48.994;8.940;2022-07-22T04:20:23;14.40;99.90
32322;DHT22;61553;48.994;8.940;2022-07-22T04:22:48;14.40;99.90
32322;DHT22;61553;48.994;8.940;2022-07-22T04:25:14;14.50;99.90
32322;DHT22;61553;48.994;8.940;2022-07-22T04:27:40;14.50;99.90
32322;DHT22;61553;48.994;8.940;2022-07-22T04:30:06;14.60;99.90
32322;DHT22;61553;48.994;8.940;2022-07-22T04:32:32;14.60;99.90
32322;DHT22;61553;48.994;8.940;2022-07-22T04:34:58;14.60;99.90
32322;DHT22;61553;48.994;8.940;2022-07-22T04:37:23;14.70;99.90
32322;DHT22;61553;48.994;8.940;2022-07-22T04:39:49;14.80;99.90
32322;DHT22;61553;48.994;8.940;2022-07-22T04:42:14;14.80;99.90
32322;DHT22;61553;48.994;8.940;2022-07-22T04:44:40;14.90;99.90
32322;DHT22;61553;48.994;8.940;2022-07-22T04:47:06;15.00;99.90
32322;DHT22;61553;48.994;8.940;2022-07-22T04:49:31;15.10;99.90
32322;DHT22;61553;48.994;8.940;2022-07-22T04:51:57;15.20;99.90
32322;DHT22;61553;48.994;8.940;2022-07-22T04:54:23;15.30;99.90
32322;DHT22;61553;48.994;8.940;2022-07-22T04:56:48;15.40;99.90
32322;DHT22;61553;48.994;8.940;2022-07-22T04:59:14;15.40;99.90
32322;DHT22;61553;48.994;8.940;2022-07-22T05:01:40;15.60;99.90
32322;DHT22;61553;48.994;8.940;2022-07-22T05:04:05;16.10;99.90
32322;DHT22;61553;48.994;8.940;2022-07-22T05:06:31;16.30;99.90
32322;DHT22;61553;48.994;8.940;2022-07-22T05:08:57;16.50;99.90
32322;DHT22;61553;48.994;8.940;2022-07-22T05:11:23;16.80;99.90
32322;DHT22;61553;48.994;8.940;2022-07-22T05:13:48;16.90;99.90
32322;DHT22;61553;48.994;8.940;2022-07-22T05:16:14;16.90;99.90
32322;DHT22;61553;48.994;8.940;2022-07-22T05:18:40;16.90;99.90
32322;DHT22;61553;48.994;8.940;2022-07-22T05:21:05;17.00;99.90
32322;DHT22;61553;48.994;8.940;2022-07-22T05:23:32;17.10;99.90
32322;DHT22;61553;48.994;8.940;2022-07-22T05:25:57;17.20;99.90
32322;DHT22;61553;48.994;8.940;2022-07-22T05:28:23;17.50;99.90
32322;DHT22;61553;48.994;8.940;2022-07-22T05:30:49;19.50;99.90
32322;DHT22;61553;48.994;8.940;2022-07-22T05:33:15;22.40;99.90
32322;DHT22;61553;48.994;8.940;2022-07-22T05:35:41;24.90;99.90
32322;DHT22;61553;48.994;8.940;2022-07-22T05:38:07;27.20;99.90
32322;DHT22;61553;48.994;8.940;2022-07-22T05:40:32;28.70;93.00
32322;DHT22;61553;48.994;8.940;2022-07-22T05:42:59;30.10;85.30
32322;DHT22;61553;48.994;8.940;2022-07-22T05:45:24;31.50;76.60
32322;DHT22;61553;48.994;8.940;2022-07-22T05:47:50;32.70;70.40
32322;DHT22;61553;48.994;8.940;2022-07-22T05:50:15;33.90;64.40
32322;DHT22;61553;48.994;8.940;2022-07-22T05:52:41;33.90;60.90
32322;DHT22;61553;48.994;8.940;2022-07-22T05:55:07;31.80;64.80
32322;DHT22;61553;48.994;8.940;2022-07-22T05:57:33;30.00;68.00
32322;DHT22;61553;48.994;8.940;2022-07-22T05:59:59;27.90;74.10
32322;DHT22;61553;48.994;8.940;2022-07-22T06:02:24;27.30;77.00
32322;DHT22;61553;48.994;8.940;2022-07-22T06:04:50;28.90;75.50
32322;DHT22;61553;48.994;8.940;2022-07-22T06:07:16;31.70;67.50
32322;DHT22;61553;48.994;8.940;2022-07-22T06:09:42;33.80;62.00
32322;DHT22;61553;48.994;8.940;2022-07-22T06:12:08;35.80;57.00
32322;DHT22;61553;48.994;8.940;2022-07-22T06:14:34;37.70;52.50
32322;DHT22;61553;48.994;8.940;2022-07-22T06:17:02;39.10;49.20
32322;DHT22;61553;48.994;8.940;2022-07-22T06:19:27;38.70;48.00
32322;DHT22;61553;48.994;8.940;2022-07-22T06:21:55;40.70;45.00
32322;DHT22;61553;48.994;8.940;2022-07-22T06:24:20;41.50;43.30
32322;DHT22;61553;48.994;8.940;2022-07-22T06:26:46;41.60;42.00
32322;DHT22;61553;48.994;8.940;2022-07-22T06:29:12;41.20;41.70
32322;DHT22;61553;48.994;8.940;2022-07-22T06:31:37;41.40;41.10
32322;DHT22;61553;48.994;8.940;2022-07-22T06:34:03;40.90;41.40
32322;DHT22;61553;48.994;8.940;2022-07-22T06:36:31;41.30;41.10
32322;DHT22;61553;48.994;8.940;2022-07-22T06:38:57;41.90;40.70
32322;DHT22;61553;48.994;8.940;2022-07-22T06:41:23;41.40;40.50
32322;DHT22;61553;48.994;8.940;2022-07-22T06:43:49;41.90;40.60
32322;DHT22;61553;48.994;8.940;2022-07-22T06:46:14;42.70;39.70
32322;DHT22;61553;48.994;8.940;2022-07-22T06:48:40;41.70;39.70
32322;DHT22;61553;48.994;8.940;2022-07-22T06:51:06;42.10;40.00
32322;DHT22;61553;48.994;8.940;2022-07-22T06:53:32;41.60;39.70
32322;DHT22;61553;48.994;8.940;2022-07-22T06:55:59;41.60;40.20
32322;DHT22;61553;48.994;8.940;2022-07-22T06:58:25;42.10;40.00
32322;DHT22;61553;48.994;8.940;2022-07-22T07:00:50;42.00;40.00
32322;DHT22;61553;48.994;8.940;2022-07-22T07:03:16;42.70;39.30
32322;DHT22;61553;48.994;8.940;2022-07-22T07:05:42;42.60;39.60
32322;DHT22;61553;48.994;8.940;2022-07-22T07:08:08;42.30;39.40
32322;DHT22;61553;48.994;8.940;2022-07-22T07:10:33;41.70;40.00
32322;DHT22;61553;48.994;8.940;2022-07-22T07:12:59;43.20;39.00
32322;DHT22;61553;48.994;8.940;2022-07-22T07:15:25;43.00;38.50
32322;DHT22;61553;48.994;8.940;2022-07-22T07:17:52;43.50;38.50
32322;DHT22;61553;48.994;8.940;2022-07-22T07:20:18;43.00;38.30
32322;DHT22;61553;48.994;8.940;2022-07-22T07:22:44;42.10;38.90
32322;DHT22;61553;48.994;8.940;2022-07-22T07:25:09;42.00;39.00
32322;DHT22;61553;48.994;8.940;2022-07-22T07:27:35;42.90;38.60
32322;DHT22;61553;48.994;8.940;2022-07-22T07:30:03;43.40;38.00
32322;DHT22;61553;48.994;8.940;2022-07-22T07:32:29;42.90;38.00
32322;DHT22;61553;48.994;8.940;2022-07-22T07:34:54;43.70;37.70
32322;DHT22;61553;48.994;8.940;2022-07-22T07:37:20;41.80;38.70
32322;DHT22;61553;48.994;8.940;2022-07-22T07:39:46;42.80;38.20
32322;DHT22;61553;48.994;8.940;2022-07-22T07:42:12;43.10;37.80
32322;DHT22;61553;48.994;8.940;2022-07-22T07:44:37;42.30;38.20
32322;DHT22;61553;48.994;8.940;2022-07-22T07:47:03;43.00;38.00
32322;DHT22;61553;48.994;8.940;2022-07-22T07:49:29;42.60;37.40
32322;DHT22;61553;48.994;8.940;2022-07-22T07:51:55;42.40;37.70
32322;DHT22;61553;48.994;8.940;2022-07-22T07:54:20;42.50;37.70
32322;DHT22;61553;48.994;8.940;2022-07-22T07:56:47;43.10;37.50
32322;DHT22;61553;48.994;8.940;2022-07-22T07:59:12;43.50;36.90
32322;DHT22;61553;48.994;8.940;2022-07-22T08:01:38;44.30;36.70
32322;DHT22;61553;48.994;8.940;2022-07-22T08:04:04;44.30;36.10
32322;DHT22;61553;48.994;8.940;2022-07-22T08:06:30;43.80;36.40
32322;DHT22;61553;48.994;8.940;2022-07-22T08:08:56;43.90;36.60
32322;DHT22;61553;48.994;8.940;2022-07-22T08:11:21;43.50;36.90
32322;DHT22;61553;48.994;8.940;2022-07-22T08:13:48;44.00;36.60
32322;DHT22;61553;48.994;8.940;2022-07-22T08:16:15;44.20;36.30
32322;DHT22;61553;48.994;8.940;2022-07-22T08:18:40;44.60;35.60
32322;DHT22;61553;48.994;8.940;2022-07-22T08:21:06;44.00;35.70
32322;DHT22;61553;48.994;8.940;2022-07-22T08:23:32;43.70;36.20
32322;DHT22;61553;48.994;8.940;2022-07-22T08:25:58;44.50;35.80
32322;DHT22;61553;48.994;8.940;2022-07-22T08:28:24;45.10;35.40
32322;DHT22;61553;48.994;8.940;2022-07-22T08:30:50;45.10;35.50
32322;DHT22;61553;48.994;8.940;2022-07-22T08:33:16;45.50;35.30
32322;DHT22;61553;48.994;8.940;2022-07-22T08:35:42;46.50;34.40
32322;DHT22;61553;48.994;8.940;2022-07-22T08:38:08;46.60;34.20
32322;DHT22;61553;48.994;8.940;2022-07-22T08:40:34;46.80;34.20
32322;DHT22;61553;48.994;8.940;2022-07-22T08:43:00;47.40;33.60
32322;DHT22;61553;48.994;8.940;2022-07-22T08:45:29;46.70;33.80
32322;DHT22;61553;48.994;8.940;2022-07-22T08:47:55;47.10;33.40
32322;DHT22;61553;48.994;8.940;2022-07-22T08:50:21;47.30;33.50
32322;DHT22;61553;48.994;8.940;2022-07-22T08:52:47;46.60;33.30
32322;DHT22;61553;48.994;8.940;2022-07-22T08:55:12;46.90;33.40
32322;DHT22;61553;48.994;8.940;2022-07-22T08:57:44;47.70;32.70
32322;DHT22;61553;48.994;8.940;2022-07-22T09:00:12;48.40;32.30
32322;DHT22;61553;48.994;8.940;2022-07-22T09:02:40;47.90;32.30
32322;DHT22;61553;48.994;8.940;2022-07-22T09:05:09;48.10;32.50
32322;DHT22;61553;48.994;8.940;2022-07-22T09:07:40;47.70;32.20
32322;DHT22;61553;48.994;8.940;2022-07-22T09:10:15;47.70;32.30
32322;DHT22;61553;48.994;8.940;2022-07-22T09:12:58;48.20;32.40
32322;DHT22;61553;48.994;8.940;2022-07-22T09:15:32;49.40;31.80
32322;DHT22;61553;48.994;8.940;2022-07-22T09:17:59;49.70;31.40
32322;DHT22;61553;48.994;8.940;2022-07-22T09:20:26;49.70;31.10
32322;DHT22;61553;48.994;8.940;2022-07-22T09:22:52;49.20;31.20
32322;DHT22;61553;48.994;8.940;2022-07-22T09:27:47;48.00;31.90
32322;DHT22;61553;48.994;8.940;2022-07-22T09:30:24;48.20;31.90
32322;DHT22;61553;48.994;8.940;2022-07-22T09:32:51;49.80;30.90
32322;DHT22;61553;48.994;8.940;2022-07-22T09:35:17;50.70;30.50
32322;DHT22;61553;48.994;8.940;2022-07-22T09:38:05;51.00;30.40
32322;DHT22;61553;48.994;8.940;2022-07-22T09:40:36;51.00;30.20
32322;DHT22;61553;48.994;8.940;2022-07-22T09:43:05;49.40;30.80
32322;DHT22;61553;48.994;8.940;2022-07-22T09:45:32;50.50;30.30
32322;DHT22;61553;48.994;8.940;2022-07-22T09:48:00;51.00;30.30
32322;DHT22;61553;48.994;8.940;2022-07-22T09:50:35;51.20;30.00
32322;DHT22;61553;48.994;8.940;2022-07-22T09:53:00;51.00;30.00
32322;DHT22;61553;48.994;8.940;2022-07-22T09:55:27;50.30;30.00
32322;DHT22;61553;48.994;8.940;2022-07-22T09:57:55;49.30;30.30
32322;DHT22;61553;48.994;8.940;2022-07-22T10:00:24;49.10;30.80
32322;DHT22;61553;48.994;8.940;2022-07-22T10:02:52;49.00;30.60
32322;DHT22;61553;48.994;8.940;2022-07-22T10:05:24;48.90;30.70
32322;DHT22;61553;48.994;8.940;2022-07-22T10:07:50;49.40;30.50
32322;DHT22;61553;48.994;8.940;2022-07-22T10:10:22;49.30;30.10
32322;DHT22;61553;48.994;8.940;2022-07-22T10:12:50;48.70;30.60
32322;DHT22;61553;48.994;8.940;2022-07-22T10:15:16;48.40;30.40
32322;DHT22;61553;48.994;8.940;2022-07-22T10:17:48;48.30;30.60
32322;DHT22;61553;48.994;8.940;2022-07-22T10:20:21;48.00;31.00
32322;DHT22;61553;48.994;8.940;2022-07-22T10:22:53;48.00;31.00
32322;DHT22;61553;48.994;8.940;2022-07-22T10:25:20;46.80;31.60
32322;DHT22;61553;48.994;8.940;2022-07-22T10:27:59;45.50;32.30
32322;DHT22;61553;48.994;8.940;2022-07-22T10:30:42;44.30;33.00
32322;DHT22;61553;48.994;8.940;2022-07-22T10:33:13;43.10;34.70
32322;DHT22;61553;48.994;8.940;2022-07-22T10:35:59;42.40;35.10
32322;DHT22;61553;48.994;8.940;2022-07-22T10:38:25;40.90;36.20
32322;DHT22;61553;48.994;8.940;2022-07-22T10:41:02;40.00;36.90
32322;DHT22;61553;48.994;8.940;2022-07-22T10:46:06;38.50;38.50
32322;DHT22;61553;48.994;8.940;2022-07-22T10:51:14;36.90;39.90
32322;DHT22;61553;48.994;8.940;2022-07-22T10:53:53;36.30;41.50
32322;DHT22;61553;48.994;8.940;2022-07-22T10:56:32;36.00;41.30
32322;DHT22;61553;48.994;8.940;2022-07-22T10:59:09;35.40;41.70
32322;DHT22;61553;48.994;8.940;2022-07-22T11:01:38;34.80;43.50
32322;DHT22;61553;48.994;8.940;2022-07-22T11:04:12;34.10;44.40
32322;DHT22;61553;48.994;8.940;2022-07-22T11:06:38;33.90;44.50
32322;DHT22;61553;48.994;8.940;2022-07-22T11:09:07;33.80;44.50
32322;DHT22;61553;48.994;8.940;2022-07-22T11:14:03;33.30;44.90
32322;DHT22;61553;48.994;8.940;2022-07-22T11:16:34;33.20;46.00
32322;DHT22;61553;48.994;8.940;2022-07-22T11:19:01;33.20;45.60
32322;DHT22;61553;48.994;8.940;2022-07-22T11:21:29;33.30;45.00
32322;DHT22;61553;48.994;8.940;2022-07-22T11:23:56;33.20;44.70
32322;DHT22;61553;48.994;8.940;2022-07-22T11:29:00;33.10;45.70
32322;DHT22;61553;48.994;8.940;2022-07-22T11:31:26;33.00;45.60
32322;DHT22;61553;48.994;8.940;2022-07-22T11:33:52;32.70;45.70
32322;DHT22;61553;48.994;8.940;2022-07-22T11:36:32;32.70;45.60
32322;DHT22;61553;48.994;8.940;2022-07-22T11:38:58;32.50;45.50
32322;DHT22;61553;48.994;8.940;2022-07-22T11:41:24;32.60;45.30
32322;DHT22;61553;48.994;8.940;2022-07-22T11:43:50;32.70;45.10
32322;DHT22;61553;48.994;8.940;2022-07-22T11:46:17;32.70;45.30
32322;DHT22;61553;48.994;8.940;2022-07-22T11:48:43;32.70;45.80
32322;DHT22;61553;48.994;8.940;2022-07-22T11:51:11;32.50;45.80
32322;DHT22;61553;48.994;8.940;2022-07-22T11:53:39;32.60;45.90
32322;DHT22;61553;48.994;8.940;2022-07-22T11:56:06;32.40;46.30
32322;DHT22;61553;48.994;8.940;2022-07-22T11:58:40;32.30;46.00
32322;DHT22;61553;48.994;8.940;2022-07-22T12:01:08;32.20;46.10
32322;DHT22;61553;48.994;8.940;2022-07-22T12:03:39;32.20;46.60
32322;DHT22;61553;48.994;8.940;2022-07-22T12:06:08;32.20;46.10
32322;DHT22;61553;48.994;8.940;2022-07-22T12:08:40;32.20;45.90
32322;DHT22;61553;48.994;8.940;2022-07-22T12:11:07;32.30;46.50
32322;DHT22;61553;48.994;8.940;2022-07-22T12:13:33;32.40;46.50
32322;DHT22;61553;48.994;8.940;2022-07-22T12:15:59;32.30;45.80
32322;DHT22;61553;48.994;8.940;2022-07-22T12:18:26;32.30;46.10
32322;DHT22;61553;48.994;8.940;2022-07-22T12:20:54;32.40;46.30
32322;DHT22;61553;48.994;8.940;2022-07-22T12:23:21;32.50;45.70
32322;DHT22;61553;48.994;8.940;2022-07-22T12:25:54;32.50;45.50
32322;DHT22;61553;48.994;8.940;2022-07-22T12:28:20;32.50;45.30
32322;DHT22;61553;48.994;8.940;2022-07-22T12:30:47;32.60;45.10
32322;DHT22;61553;48.994;8.940;2022-07-22T12:33:16;32.70;45.30
32322;DHT22;61553;48.994;8.940;2022-07-22T12:35:43;32.50;45.20
32322;DHT22;61553;48.994;8.940;2022-07-22T12:38:10;32.50;45.60
32322;DHT22;61553;48.994;8.940;2022-07-22T12:40:37;32.50;46.30
32322;DHT22;61553;48.994;8.940;2022-07-22T12:43:07;32.60;46.20
32322;DHT22;61553;48.994;8.940;2022-07-22T12:45:35;32.50;45.90
32322;DHT22;61553;48.994;8.940;2022-07-22T12:50:39;32.40;45.40
32322;DHT22;61553;48.994;8.940;2022-07-22T12:55:34;32.30;46.10
32322;DHT22;61553;48.994;8.940;2022-07-22T12:58:00;32.40;45.20
32322;DHT22;61553;48.994;8.940;2022-07-22T13:00:29;32.40;45.20
32322;DHT22;61553;48.994;8.940;2022-07-22T13:02:55;32.50;45.30
32322;DHT22;61553;48.994;8.940;2022-07-22T13:05:21;32.40;45.50
32322;DHT22;61553;48.994;8.940;2022-07-22T13:07:47;32.50;45.70
32322;DHT22;61553;48.994;8.940;2022-07-22T13:10:14;32.70;45.00
32322;DHT22;61553;48.994;8.940;2022-07-22T13:12:40;32.80;44.50
32322;DHT22;61553;48.994;8.940;2022-07-22T13:15:06;32.90;45.10
32322;DHT22;61553;48.994;8.940;2022-07-22T13:17:33;32.90;44.40
32322;DHT22;61553;48.994;8.940;2022-07-22T13:19:59;32.90;44.60
32322;DHT22;61553;48.994;8.940;2022-07-22T13:22:24;32.80;44.50
32322;DHT22;61553;48.994;8.940;2022-07-22T13:24:50;32.90;44.80
32322;DHT22;61553;48.994;8.940;2022-07-22T13:27:16;32.90;44.50
32322;DHT22;61553;48.994;8.940;2022-07-22T13:29:42;33.00;44.80
32322;DHT22;61553;48.994;8.940;2022-07-22T13:32:07;33.10;44.80
32322;DHT22;61553;48.994;8.940;2022-07-22T13:34:33;33.00;44.40
32322;DHT22;61553;48.994;8.940;2022-07-22T13:37:00;32.80;44.00
32322;DHT22;61553;48.994;8.940;2022-07-22T13:39:26;33.00;43.80
32322;DHT22;61553;48.994;8.940;2022-07-22T13:41:52;32.90;43.70
32322;DHT22;61553;48.994;8.940;2022-07-22T13:44:17;32.90;43.70
32322;DHT22;61553;48.994;8.940;2022-07-22T13:46:43;33.00;43.80
32322;DHT22;61553;48.994;8.940;2022-07-22T13:49:09;33.10;42.90
32322;DHT22;61553;48.994;8.940;2022-07-22T13:51:35;33.00;42.90
32322;DHT22;61553;48.994;8.940;2022-07-22T13:54:00;32.90;43.50
32322;DHT22;61553;48.994;8.940;2022-07-22T13:56:26;32.90;44.00
32322;DHT22;61553;48.994;8.940;2022-07-22T13:58:52;33.00;43.50
32322;DHT22;61553;48.994;8.940;2022-07-22T14:01:17;33.00;43.40
32322;DHT22;61553;48.994;8.940;2022-07-22T14:03:43;32.90;43.50
32322;DHT22;61553;48.994;8.940;2022-07-22T14:06:09;33.10;43.50
32322;DHT22;61553;48.994;8.940;2022-07-22T14:08:35;33.30;43.30
32322;DHT22;61553;48.994;8.940;2022-07-22T14:11:01;33.40;42.70
32322;DHT22;61553;48.994;8.940;2022-07-22T14:13:27;33.40;42.70
32322;DHT22;61553;48.994;8.940;2022-07-22T14:15:53;33.50;42.30
32322;DHT22;61553;48.994;8.940;2022-07-22T14:18:19;33.50;42.40
32322;DHT22;61553;48.994;8.940;2022-07-22T14:20:44;33.70;42.60
32322;DHT22;61553;48.994;8.940;2022-07-22T14:23:10;33.50;43.30
32322;DHT22;61553;48.994;8.940;2022-07-22T14:25:37;33.50;42.90
32322;DHT22;61553;48.994;8.940;2022-07-22T14:28:04;33.50;42.90
32322;DHT22;61553;48.994;8.940;2022-07-22T14:30:31;33.60;43.60
32322;DHT22;61553;48.994;8.940;2022-07-22T14:32:56;33.60;43.00
32322;DHT22;61553;48.994;8.940;2022-07-22T14:35:22;33.60;42.40
32322;DHT22;61553;48.994;8.940;2022-07-22T14:37:48;33.60;42.50
32322;DHT22;61553;48.994;8.940;2022-07-22T14:40:13;33.50;42.60
32322;DHT22;61553;48.994;8.940;2022-07-22T14:42:39;33.60;42.40
32322;DHT22;61553;48.994;8.940;2022-07-22T14:45:06;33.60;42.70
32322;DHT22;61553;48.994;8.940;2022-07-22T14:47:37;33.60;43.00
32322;DHT22;61553;48.994;8.940;2022-07-22T14:50:05;33.60;42.70
32322;DHT22;61553;48.994;8.940;2022-07-22T14:52:31;33.60;42.80
32322;DHT22;61553;48.994;8.940;2022-07-22T14:54:56;33.70;42.50
32322;DHT22;61553;48.994;8.940;2022-07-22T14:57:22;33.80;43.10
32322;DHT22;61553;48.994;8.940;2022-07-22T14:59:48;33.90;43.50
32322;DHT22;61553;48.994;8.940;2022-07-22T15:02:13;33.80;42.50
32322;DHT22;61553;48.994;8.940;2022-07-22T15:04:39;33.90;43.40
32322;DHT22;61553;48.994;8.940;2022-07-22T15:07:05;33.90;42.80
32322;DHT22;61553;48.994;8.940;2022-07-22T15:09:30;33.80;42.70
32322;DHT22;61553;48.994;8.940;2022-07-22T15:11:56;33.90;42.50
32322;DHT22;61553;48.994;8.940;2022-07-22T15:14:21;34.00;42.60
32322;DHT22;61553;48.994;8.940;2022-07-22T15:16:47;34.00;42.40
32322;DHT22;61553;48.994;8.940;2022-07-22T15:19:13;33.90;42.40
32322;DHT22;61553;48.994;8.940;2022-07-22T15:21:39;33.80;42.70
32322;DHT22;61553;48.994;8.940;2022-07-22T15:24:05;33.80;42.30
32322;DHT22;61553;48.994;8.940;2022-07-22T15:26:31;33.80;42.80
32322;DHT22;61553;48.994;8.940;2022-07-22T15:28:57;33.70;42.60
32322;DHT22;61553;48.994;8.940;2022-07-22T15:31:22;33.70;42.50
32322;DHT22;61553;48.994;8.940;2022-07-22T15:33:48;33.70;42.60
32322;DHT22;61553;48.994;8.940;2022-07-22T15:36:17;33.80;42.80
32322;DHT22;61553;48.994;8.940;2022-07-22T15:38:43;33.70;43.20
32322;DHT22;61553;48.994;8.940;2022-07-22T15:41:09;33.70;42.80
32322;DHT22;61553;48.994;8.940;2022-07-22T15:43:34;33.60;43.50